createdAt,value
2022-08-26T00:01:44.049Z,17.20
2022-08-26T00:04:11.969Z,17.20
2022-08-26T00:06:42.759Z,17.20
2022-08-26T00:09:16.266Z,17.30
2022-08-26T00:11:44.814Z,17.10
2022-08-26T00:14:13.965Z,17.10
2022-08-26T00:16:47.185Z,17.10
2022-08-26T00:19:17.866Z,16.70
2022-08-26T00:21:46.070Z,17.10
2022-08-26T00:24:13.406Z,17.20
2022-08-26T00:26:41.370Z,17.20
2022-08-26T00:29:09.404Z,17.20
2022-08-26T00:31:36.720Z,17.10
2022-08-26T00:34:04.355Z,17.10
2022-08-26T00:36:31.972Z,17.20
2022-08-26T00:38:59.631Z,17.10
2022-08-26T00:41:29.042Z,17.20
2022-08-26T00:43:56.158Z,17.10
2022-08-26T00:46:29.693Z,17.50
2022-08-26T00:49:03.514Z,17.10
2022-08-26T00:51:30.804Z,17.10
2022-08-26T00:54:00.498Z,17.20
2022-08-26T00:56:38.242Z,17.30
2022-08-26T00:59:07.085Z,17.30
2022-08-26T01:01:34.836Z,17.30
2022-08-26T01:04:02.296Z,17.30
2022-08-26T01:06:30.006Z,17.40
2022-08-26T01:08:57.981Z,17.10
2022-08-26T01:11:25.569Z,17.30
2022-08-26T01:13:58.767Z,17.20
2022-08-26T01:16:26.206Z,17.30
2022-08-26T01:18:56.537Z,17.30
2022-08-26T01:21:33.745Z,17.50
2022-08-26T01:24:01.262Z,17.10
2022-08-26T01:26:33.857Z,17.20
2022-08-26T01:29:03.311Z,17.10
2022-08-26T01:31:35.522Z,17.00
2022-08-26T01:34:03.726Z,17.10
2022-08-26T01:36:31.199Z,17.10
2022-08-26T01:38:58.368Z,17.10
2022-08-26T01:41:27.589Z,17.10
2022-08-26T01:43:56.938Z,17.00
2022-08-26T01:46:26.555Z,17.00
2022-08-26T01:48:55.197Z,17.00
2022-08-26T01:51:23.399Z,17.00
2022-08-26T01:53:50.569Z,17.20
2022-08-26T01:56:17.694Z,17.00
2022-08-26T01:58:46.936Z,17.00
2022-08-26T02:01:14.424Z,16.90
2022-08-26T02:04:00.277Z,16.90
2022-08-26T02:06:27.382Z,16.80
2022-08-26T02:08:55.468Z,16.90
2022-08-26T02:11:22.588Z,16.80
2022-08-26T02:13:52.164Z,18.30
2022-08-26T02:16:22.488Z,16.80
2022-08-26T02:18:53.365Z,16.40
2022-08-26T02:21:20.709Z,16.70
2022-08-26T02:23:47.852Z,16.70
2022-08-26T02:26:19.177Z,16.60
2022-08-26T02:28:50.313Z,16.70
2022-08-26T02:31:17.488Z,16.60
2022-08-26T02:33:44.637Z,15.80
2022-08-26T02:36:13.362Z,16.50
2022-08-26T02:38:40.619Z,16.50
2022-08-26T02:41:11.248Z,16.50
2022-08-26T02:43:38.534Z,16.50
2022-08-26T02:46:06.042Z,15.70
2022-08-26T02:48:33.624Z,16.50
2022-08-26T02:51:01.917Z,16.50
2022-08-26T02:53:31.843Z,16.50
2022-08-26T02:56:00.873Z,16.50
2022-08-26T02:58:28.387Z,16.50
2022-08-26T03:00:55.599Z,16.60
2022-08-26T03:03:23.601Z,16.50
2022-08-26T03:05:53.710Z,16.50
2022-08-26T03:08:22.303Z,16.60
2022-08-26T03:10:50.003Z,16.50
2022-08-26T03:13:17.337Z,16.50
2022-08-26T03:15:44.541Z,16.40
2022-08-26T03:18:15.027Z,16.40
2022-08-26T03:20:42.177Z,16.40
2022-08-26T03:23:11.357Z,16.40
2022-08-26T03:25:38.688Z,16.20
2022-08-26T03:28:05.856Z,16.20
2022-08-26T03:30:44.847Z,16.20
2022-08-26T03:33:13.204Z,16.20
2022-08-26T03:35:41.683Z,16.10
2022-08-26T03:38:09.335Z,16.10
2022-08-26T03:40:37.324Z,16.10
2022-08-26T03:43:05.590Z,16.10
2022-08-26T03:45:33.553Z,16.10
2022-08-26T03:48:00.673Z,16.10
2022-08-26T03:50:29.494Z,16.10
2022-08-26T03:53:01.736Z,16.10
2022-08-26T03:55:32.061Z,16.20
2022-08-26T03:57:59.571Z,16.20
2022-08-26T04:00:26.756Z,16.20
2022-08-26T04:02:54.030Z,16.20
2022-08-26T04:05:22.149Z,16.20
2022-08-26T04:07:50.481Z,16.20
2022-08-26T04:10:20.280Z,16.20
2022-08-26T04:12:47.907Z,16.20
2022-08-26T04:15:15.889Z,16.20
2022-08-26T04:17:43.429Z,16.20
2022-08-26T04:20:14.007Z,16.20
2022-08-26T04:22:43.493Z,16.20
2022-08-26T04:25:11.297Z,16.20
2022-08-26T04:27:38.756Z,16.20
2022-08-26T04:30:09.011Z,16.20
2022-08-26T04:32:37.429Z,16.10
2022-08-26T04:35:05.604Z,16.00
2022-08-26T04:37:33.623Z,15.90
2022-08-26T04:40:00.913Z,16.20
2022-08-26T04:42:29.415Z,16.10
2022-08-26T04:44:56.622Z,16.10
2022-08-26T04:47:27.163Z,16.00
2022-08-26T04:49:57.657Z,16.60
2022-08-26T04:52:24.784Z,16.20
2022-08-26T04:54:53.072Z,16.10
2022-08-26T04:57:20.264Z,16.10
2022-08-26T04:59:48.173Z,16.00
2022-08-26T05:02:16.675Z,16.00
2022-08-26T05:04:43.841Z,15.90
2022-08-26T05:07:11.144Z,15.90
2022-08-26T05:09:41.522Z,15.90
2022-08-26T05:12:09.699Z,15.80
2022-08-26T05:14:37.084Z,15.40
2022-08-26T05:17:04.747Z,15.80
2022-08-26T05:19:32.797Z,15.80
2022-08-26T05:21:59.957Z,15.70
2022-08-26T05:24:27.371Z,15.70
2022-08-26T05:26:54.799Z,15.70
2022-08-26T05:29:24.121Z,15.70
2022-08-26T05:31:52.024Z,15.60
2022-08-26T05:34:20.077Z,15.60
2022-08-26T05:36:47.441Z,15.60
2022-08-26T05:39:14.651Z,15.70
2022-08-26T05:41:42.926Z,15.60
2022-08-26T05:44:12.917Z,15.70
2022-08-26T05:46:41.601Z,15.70
2022-08-26T05:49:12.814Z,16.10
2022-08-26T05:51:45.223Z,15.70
2022-08-26T05:54:13.004Z,15.70
2022-08-26T05:56:40.304Z,15.70
2022-08-26T05:59:14.580Z,15.70
2022-08-26T06:01:42.377Z,15.80
2022-08-26T06:04:10.214Z,15.80
2022-08-26T06:06:41.290Z,15.90
2022-08-26T06:09:11.225Z,15.90
2022-08-26T06:11:38.919Z,15.90
2022-08-26T06:14:07.828Z,16.00
2022-08-26T06:16:40.750Z,16.00
2022-08-26T06:19:10.785Z,16.10
2022-08-26T06:21:40.291Z,16.00
2022-08-26T06:24:28.564Z,16.00
2022-08-26T06:26:57.141Z,16.00
2022-08-26T06:29:25.909Z,16.10
2022-08-26T06:31:53.990Z,16.10
2022-08-26T06:34:23.710Z,16.20
2022-08-26T06:36:58.656Z,16.20
2022-08-26T06:39:26.029Z,16.20
2022-08-26T06:41:53.492Z,16.30
2022-08-26T06:44:22.404Z,16.30
2022-08-26T06:46:50.463Z,16.30
2022-08-26T06:49:18.061Z,16.30
2022-08-26T06:51:47.530Z,16.10
2022-08-26T06:54:16.134Z,16.10
2022-08-26T06:56:43.592Z,16.40
2022-08-26T06:59:11.778Z,16.40
2022-08-26T07:01:44.790Z,16.40
2022-08-26T07:04:15.434Z,16.50
2022-08-26T07:06:47.107Z,16.50
2022-08-26T07:09:14.669Z,16.50
2022-08-26T07:11:41.837Z,16.60
2022-08-26T07:14:09.122Z,16.50
2022-08-26T07:16:36.245Z,16.60
2022-08-26T07:19:11.113Z,17.50
2022-08-26T07:21:40.438Z,16.60
2022-08-26T07:24:08.420Z,16.60
2022-08-26T07:26:38.861Z,16.70
2022-08-26T07:29:12.563Z,16.70
2022-08-26T07:31:42.383Z,16.80
2022-08-26T07:34:10.841Z,16.80
2022-08-26T07:36:38.223Z,16.90
2022-08-26T07:39:05.838Z,16.90
2022-08-26T07:41:33.680Z,16.90
2022-08-26T07:44:01.236Z,17.00
2022-08-26T07:46:30.282Z,17.00
2022-08-26T07:48:58.309Z,17.00
2022-08-26T07:51:26.162Z,17.10
2022-08-26T07:53:54.341Z,17.10
2022-08-26T07:56:23.390Z,17.10
2022-08-26T07:58:51.457Z,17.20
2022-08-26T08:01:23.885Z,17.20
2022-08-26T08:03:51.817Z,17.10
2022-08-26T08:06:27.135Z,17.20
2022-08-26T08:08:55.399Z,17.20
2022-08-26T08:11:23.196Z,17.20
2022-08-26T08:13:56.071Z,17.30
2022-08-26T08:16:27.821Z,17.30
2022-08-26T08:18:56.570Z,17.40
2022-08-26T08:21:25.008Z,17.20
2022-08-26T08:23:53.537Z,17.40
2022-08-26T08:26:21.092Z,17.40
2022-08-26T08:28:48.258Z,17.50
2022-08-26T08:31:45.126Z,17.20
2022-08-26T08:34:10.804Z,17.50
2022-08-26T08:36:37.903Z,17.70
2022-08-26T08:39:06.465Z,17.60
2022-08-26T08:41:41.611Z,17.60
2022-08-26T08:44:13.766Z,17.70
2022-08-26T08:46:42.219Z,17.70
2022-08-26T08:49:11.044Z,17.70
2022-08-26T08:51:45.886Z,18.10
2022-08-26T08:54:14.017Z,17.80
2022-08-26T08:56:50.288Z,17.80
2022-08-26T08:59:24.188Z,18.40
2022-08-26T09:01:52.590Z,17.90
2022-08-26T09:04:24.044Z,17.80
2022-08-26T09:06:54.321Z,17.90
2022-08-26T09:09:24.043Z,17.90
2022-08-26T09:11:51.699Z,18.00
2022-08-26T09:14:19.191Z,18.00
2022-08-26T09:17:12.827Z,18.00
2022-08-26T09:19:47.171Z,18.00
2022-08-26T09:22:28.053Z,18.00
2022-08-26T09:24:56.331Z,18.10
2022-08-26T09:27:36.173Z,18.10
2022-08-26T09:30:05.347Z,18.10
2022-08-26T09:32:33.050Z,18.20
2022-08-26T09:35:02.256Z,18.20
2022-08-26T09:40:22.560Z,18.30
2022-08-26T09:43:08.768Z,18.30
2022-08-26T09:45:36.249Z,18.30
2022-08-26T09:48:03.571Z,18.30
2022-08-26T09:50:32.046Z,18.30
2022-08-26T09:53:09.949Z,18.30
2022-08-26T09:55:44.633Z,18.40
2022-08-26T09:58:30.685Z,18.30
2022-08-26T10:01:03.981Z,18.40
2022-08-26T10:03:35.432Z,19.00
2022-08-26T10:06:04.887Z,18.40
2022-08-26T10:08:37.394Z,18.40
2022-08-26T10:11:07.429Z,17.80
2022-08-26T10:13:37.596Z,18.50
2022-08-26T10:16:16.380Z,18.50
2022-08-26T10:19:04.269Z,18.60
2022-08-26T10:21:39.041Z,18.60
2022-08-26T10:24:08.077Z,18.60
2022-08-26T10:26:38.552Z,18.60
2022-08-26T10:29:12.478Z,18.60
2022-08-26T10:31:51.462Z,18.60
2022-08-26T10:34:19.385Z,18.70
2022-08-26T10:37:13.975Z,18.70
2022-08-26T10:39:56.860Z,18.70
2022-08-26T10:42:28.801Z,18.80
2022-08-26T10:44:58.880Z,18.80
2022-08-26T10:47:33.354Z,18.80
2022-08-26T10:50:02.946Z,18.80
2022-08-26T10:52:42.619Z,19.00
2022-08-26T10:55:10.376Z,18.90
2022-08-26T10:57:53.025Z,18.90
2022-08-26T11:00:43.964Z,18.90
2022-08-26T11:03:21.857Z,19.00
2022-08-26T11:06:08.591Z,19.00
2022-08-26T11:08:45.106Z,19.10
2022-08-26T11:11:12.217Z,19.10
2022-08-26T11:13:59.137Z,19.10
2022-08-26T11:16:45.650Z,19.10
2022-08-26T11:19:50.878Z,19.20
2022-08-26T11:22:29.809Z,19.20
2022-08-26T11:24:57.061Z,19.30
2022-08-26T11:27:27.237Z,19.30
2022-08-26T11:29:57.636Z,19.30
2022-08-26T11:32:27.901Z,19.40
2022-08-26T11:34:58.340Z,19.40
2022-08-26T11:37:32.394Z,19.50
2022-08-26T11:40:01.027Z,19.40
2022-08-26T11:42:40.610Z,19.50
2022-08-26T11:45:27.536Z,19.50
2022-08-26T11:47:55.481Z,19.50
2022-08-26T11:50:26.062Z,19.20
2022-08-26T11:53:07.758Z,19.50
2022-08-26T11:55:40.735Z,19.50
2022-08-26T11:58:11.853Z,19.50
2022-08-26T12:00:46.278Z,19.50
2022-08-26T12:03:18.865Z,19.50
2022-08-26T12:05:49.462Z,19.50
2022-08-26T12:08:18.110Z,19.50
2022-08-26T12:10:45.642Z,19.50
2022-08-26T12:13:23.186Z,19.60
2022-08-26T12:15:57.974Z,19.60
2022-08-26T12:18:29.396Z,19.70
2022-08-26T12:21:01.048Z,19.70
2022-08-26T12:23:29.553Z,19.70
2022-08-26T12:26:05.783Z,19.90
2022-08-26T12:28:34.696Z,19.80
2022-08-26T12:31:03.800Z,19.90
2022-08-26T12:33:34.074Z,20.00
2022-08-26T12:36:02.144Z,20.00
2022-08-26T12:38:29.752Z,20.10
2022-08-26T12:40:57.223Z,20.10
2022-08-26T12:43:56.903Z,20.20
2022-08-26T12:46:25.662Z,20.30
2022-08-26T12:48:52.868Z,20.40
2022-08-26T12:51:22.368Z,20.50
2022-08-26T12:53:49.792Z,20.50
2022-08-26T12:56:20.108Z,20.60
2022-08-26T12:59:00.551Z,20.60
2022-08-26T13:01:27.885Z,20.70
2022-08-26T13:03:55.374Z,20.80
2022-08-26T13:06:22.546Z,20.80
2022-08-26T13:08:51.428Z,21.60
2022-08-26T13:11:24.883Z,20.90
2022-08-26T13:13:53.910Z,21.00
2022-08-26T13:16:22.037Z,21.00
2022-08-26T13:18:53.735Z,21.10
2022-08-26T13:21:22.509Z,21.20
2022-08-26T13:23:50.545Z,21.10
2022-08-26T13:26:19.903Z,21.30
2022-08-26T13:28:49.461Z,21.60
2022-08-26T13:31:31.242Z,21.30
2022-08-26T13:33:59.462Z,21.20
2022-08-26T13:36:27.038Z,21.20
2022-08-26T13:38:54.343Z,21.20
2022-08-26T13:41:29.443Z,21.10
2022-08-26T13:43:58.845Z,21.10
2022-08-26T13:46:28.135Z,21.00
2022-08-26T13:48:56.618Z,21.00
2022-08-26T13:51:24.619Z,21.00
2022-08-26T13:53:52.251Z,20.40
2022-08-26T13:56:19.857Z,20.50
2022-08-26T13:58:47.802Z,21.10
2022-08-26T14:01:17.440Z,21.20
2022-08-26T14:03:45.148Z,21.20
2022-08-26T14:06:12.813Z,21.30
2022-08-26T14:08:40.201Z,21.30
2022-08-26T14:11:08.011Z,21.40
2022-08-26T14:13:35.516Z,21.50
2022-08-26T14:16:04.790Z,21.50
2022-08-26T14:18:36.321Z,21.80
2022-08-26T14:21:07.647Z,21.60
2022-08-26T14:23:35.175Z,21.50
2022-08-26T14:26:08.138Z,21.50
2022-08-26T14:28:35.550Z,21.50
2022-08-26T14:31:03.218Z,21.90
2022-08-26T14:33:33.066Z,21.60
2022-08-26T14:36:20.840Z,21.70
2022-08-26T14:38:47.985Z,21.70
2022-08-26T14:41:17.247Z,21.70
2022-08-26T14:43:54.655Z,21.90
2022-08-26T14:46:22.301Z,22.00
2022-08-26T14:48:49.532Z,22.00
2022-08-26T14:51:16.801Z,22.10
2022-08-26T14:54:02.683Z,22.10
2022-08-26T14:56:31.213Z,22.20
2022-08-26T14:58:58.392Z,22.20
2022-08-26T15:01:30.386Z,22.20
2022-08-26T15:03:58.939Z,22.20
2022-08-26T15:06:26.282Z,22.20
2022-08-26T15:08:53.775Z,22.30
2022-08-26T15:11:21.265Z,22.30
2022-08-26T15:13:48.745Z,22.30
2022-08-26T15:16:17.180Z,22.30
2022-08-26T15:18:44.519Z,22.30
2022-08-26T15:21:11.761Z,22.20
2022-08-26T15:23:39.817Z,22.20
2022-08-26T15:26:10.731Z,22.10
2022-08-26T15:28:39.062Z,22.10
2022-08-26T15:31:06.715Z,22.10
2022-08-26T15:33:35.065Z,22.10
2022-08-26T15:36:03.238Z,22.00
2022-08-26T15:38:31.182Z,22.10
2022-08-26T15:41:02.894Z,22.20
2022-08-26T15:43:30.837Z,22.20
2022-08-26T15:45:58.013Z,22.10
2022-08-26T15:48:25.739Z,22.10
2022-08-26T15:51:01.008Z,22.10
2022-08-26T15:53:29.705Z,22.20
2022-08-26T15:55:58.403Z,22.20
2022-08-26T15:58:27.025Z,22.30
2022-08-26T16:01:14.672Z,22.10
2022-08-26T16:03:46.317Z,22.10
2022-08-26T16:06:15.087Z,22.10
2022-08-26T16:08:43.030Z,22.10
2022-08-26T16:11:10.194Z,22.10
2022-08-26T16:13:39.582Z,22.10
2022-08-26T16:16:09.005Z,22.00
2022-08-26T16:18:36.450Z,22.10
2022-08-26T16:21:13.381Z,22.00
2022-08-26T16:23:43.144Z,22.50
2022-08-26T16:26:13.769Z,22.00
2022-08-26T16:28:41.339Z,22.00
2022-08-26T16:31:11.164Z,21.90
2022-08-26T16:33:38.384Z,21.90
2022-08-26T16:36:06.135Z,21.80
2022-08-26T16:38:35.101Z,21.80
2022-08-26T16:41:02.425Z,21.80
2022-08-26T16:43:30.782Z,21.80
2022-08-26T16:45:58.026Z,21.70
2022-08-26T16:48:25.510Z,21.70
2022-08-26T16:50:54.483Z,21.70
2022-08-26T16:53:22.179Z,21.70
2022-08-26T16:55:50.281Z,21.60
2022-08-26T16:58:18.602Z,22.20
2022-08-26T17:00:46.057Z,21.60
2022-08-26T17:03:13.508Z,21.50
2022-08-26T17:05:40.738Z,21.50
2022-08-26T17:08:08.018Z,21.50
2022-08-26T17:10:35.370Z,21.50
2022-08-26T17:13:04.035Z,21.50
2022-08-26T17:15:31.319Z,21.50
2022-08-26T17:17:58.549Z,21.50
2022-08-26T17:20:26.527Z,21.50
2022-08-26T17:22:54.371Z,21.50
2022-08-26T17:25:21.559Z,21.40
2022-08-26T17:27:48.851Z,21.40
2022-08-26T17:30:16.658Z,21.40
2022-08-26T17:32:43.890Z,21.40
2022-08-26T17:35:11.926Z,21.40
2022-08-26T17:37:42.817Z,21.30
2022-08-26T17:40:12.174Z,21.30
2022-08-26T17:42:40.209Z,21.30
2022-08-26T17:45:08.298Z,21.30
2022-08-26T17:47:36.888Z,21.30
2022-08-26T17:50:05.427Z,21.20
2022-08-26T17:52:32.989Z,21.20
2022-08-26T17:55:00.129Z,21.20
2022-08-26T17:57:27.353Z,21.20
2022-08-26T17:59:56.848Z,21.20
2022-08-26T18:02:24.724Z,21.20
2022-08-26T18:04:51.977Z,21.10
2022-08-26T18:07:19.299Z,21.10
2022-08-26T18:09:46.419Z,21.10
2022-08-26T18:12:13.630Z,21.00
2022-08-26T18:14:40.820Z,21.10
2022-08-26T18:17:10.801Z,21.00
2022-08-26T18:19:39.292Z,21.00
2022-08-26T18:22:06.920Z,21.00
2022-08-26T18:24:34.891Z,21.00
2022-08-26T18:27:02.099Z,20.90
2022-08-26T18:29:29.397Z,20.90
2022-08-26T18:31:56.810Z,21.00
2022-08-26T18:34:31.843Z,20.90
2022-08-26T18:36:59.271Z,20.80
2022-08-26T18:39:26.503Z,20.90
2022-08-26T18:41:53.743Z,20.90
2022-08-26T18:44:23.468Z,20.90
2022-08-26T18:46:51.267Z,20.70
2022-08-26T18:49:20.701Z,20.90
2022-08-26T18:51:50.602Z,20.90
2022-08-26T18:56:50.496Z,20.80
2022-08-26T18:59:18.355Z,20.80
2022-08-26T19:01:46.298Z,20.80
2022-08-26T19:04:17.860Z,20.80
2022-08-26T19:06:49.075Z,20.70
2022-08-26T19:09:17.987Z,21.50
2022-08-26T19:11:46.803Z,20.70
2022-08-26T19:14:16.947Z,20.70
2022-08-26T19:16:49.661Z,20.70
2022-08-26T19:19:17.005Z,20.40
2022-08-26T19:21:44.263Z,20.60
2022-08-26T19:24:15.896Z,20.60
2022-08-26T19:26:51.405Z,20.70
2022-08-26T19:29:26.350Z,20.60
2022-08-26T19:31:53.555Z,20.70
2022-08-26T19:34:21.064Z,20.70
2022-08-26T19:36:48.765Z,20.70
2022-08-26T19:39:16.171Z,20.70
2022-08-26T19:41:44.039Z,20.50
2022-08-26T19:44:13.566Z,20.70
2022-08-26T19:46:40.927Z,20.70
2022-08-26T19:49:08.028Z,20.70
2022-08-26T19:51:35.662Z,20.70
2022-08-26T19:54:02.828Z,20.30
2022-08-26T19:56:29.963Z,20.70
2022-08-26T19:58:57.405Z,20.70
2022-08-26T20:01:25.334Z,20.70
2022-08-26T20:03:52.750Z,20.60
2022-08-26T20:06:20.908Z,20.60
2022-08-26T20:08:50.718Z,20.60
2022-08-26T20:11:19.228Z,20.50
2022-08-26T20:13:47.773Z,20.50
2022-08-26T20:16:15.328Z,20.50
2022-08-26T20:19:03.051Z,20.40
2022-08-26T20:21:33.282Z,20.20
2022-08-26T20:24:03.527Z,20.40
2022-08-26T20:26:31.845Z,20.30
2022-08-26T20:29:01.382Z,20.20
2022-08-26T20:31:29.122Z,20.30
2022-08-26T20:33:56.439Z,20.30
2022-08-26T20:36:24.514Z,20.30
2022-08-26T20:38:51.881Z,20.20
2022-08-26T20:41:20.317Z,20.20
2022-08-26T20:43:47.568Z,20.20
2022-08-26T20:46:18.770Z,20.10
2022-08-26T20:48:47.269Z,20.10
2022-08-26T20:51:14.649Z,20.10
2022-08-26T20:53:42.112Z,20.00
2022-08-26T20:56:10.664Z,20.00
2022-08-26T20:58:38.516Z,20.00
2022-08-26T21:01:08.193Z,20.00
2022-08-26T21:03:36.551Z,19.90
2022-08-26T21:06:04.026Z,19.90
2022-08-26T21:08:33.283Z,19.90
2022-08-26T21:11:00.938Z,19.80
2022-08-26T21:13:42.762Z,19.80
2022-08-26T21:16:16.997Z,19.80
2022-08-26T21:18:44.451Z,19.80
2022-08-26T21:21:13.031Z,19.80
2022-08-26T21:23:41.389Z,19.70
2022-08-26T21:26:10.086Z,19.70
2022-08-26T21:28:40.761Z,19.60
2022-08-26T21:31:09.542Z,19.60
2022-08-26T21:33:37.227Z,19.60
2022-08-26T21:36:05.784Z,20.20
2022-08-26T21:38:33.386Z,19.50
2022-08-26T21:41:05.200Z,19.50
2022-08-26T21:43:35.552Z,19.40
2022-08-26T21:46:16.385Z,19.40
2022-08-26T21:48:50.028Z,20.00
2022-08-26T21:51:20.544Z,19.30
2022-08-26T21:53:47.828Z,19.20
2022-08-26T21:56:16.217Z,19.20
2022-08-26T21:58:43.573Z,19.20
2022-08-26T22:01:12.337Z,19.10
2022-08-26T22:03:46.903Z,19.10
2022-08-26T22:06:16.375Z,18.60
2022-08-26T22:08:43.565Z,19.00
2022-08-26T22:11:11.272Z,19.00
2022-08-26T22:13:43.383Z,18.90
2022-08-26T22:16:11.416Z,18.90
2022-08-26T22:18:39.355Z,18.90
2022-08-26T22:21:08.206Z,18.90
2022-08-26T22:23:36.233Z,18.90
2022-08-26T22:26:05.460Z,18.80
2022-08-26T22:28:32.669Z,18.80
2022-08-26T22:31:02.389Z,18.80
2022-08-26T22:33:29.916Z,18.70
2022-08-26T22:35:57.761Z,18.70
2022-08-26T22:38:25.174Z,18.60
2022-08-26T22:40:58.536Z,18.60
2022-08-26T22:43:28.983Z,18.50
2022-08-26T22:45:56.312Z,18.50
2022-08-26T22:48:24.444Z,18.40
2022-08-26T22:50:56.125Z,18.50
2022-08-26T22:53:25.709Z,18.10
2022-08-26T22:55:53.446Z,18.40
2022-08-26T22:58:21.007Z,18.40
2022-08-26T23:00:59.303Z,18.30
2022-08-26T23:03:26.991Z,18.70
2022-08-26T23:05:55.612Z,18.30
2022-08-26T23:08:23.692Z,19.30
2022-08-26T23:10:51.467Z,18.30
2022-08-26T23:13:19.297Z,18.90
2022-08-26T23:15:47.049Z,18.10
2022-08-26T23:18:15.261Z,18.10
2022-08-26T23:20:42.957Z,18.10
2022-08-26T23:23:10.141Z,18.10
2022-08-26T23:25:37.344Z,18.00
2022-08-26T23:28:04.501Z,18.00
2022-08-26T23:30:32.566Z,18.00
2022-08-26T23:32:59.972Z,18.00
2022-08-26T23:35:28.146Z,17.90
2022-08-26T23:37:55.554Z,17.90
2022-08-26T23:40:27.983Z,17.90
2022-08-26T23:42:57.578Z,17.60
2022-08-26T23:45:25.641Z,17.80
2022-08-26T23:47:54.967Z,17.80
2022-08-26T23:50:48.560Z,17.80
2022-08-26T23:53:21.775Z,17.70
2022-08-26T23:55:53.239Z,17.70
2022-08-26T23:58:21.248Z,17.70
